createdAt,value
2019-01-28T00:01:24.022Z,9.97
2019-01-28T00:06:25.807Z,10.57
2019-01-28T00:11:27.996Z,21.33
2019-01-28T00:16:30.186Z,23.80
2019-01-28T00:21:32.102Z,13.80
2019-01-28T00:26:33.838Z,10.50
2019-01-28T00:31:36.015Z,14.87
2019-01-28T00:36:37.885Z,16.17
2019-01-28T00:41:40.071Z,16.57
2019-01-28T00:46:41.942Z,5.30
2019-01-28T00:51:43.815Z,17.80
2019-01-28T00:56:45.684Z,5.07
2019-01-28T01:01:47.473Z,16.93
2019-01-28T01:06:49.426Z,8.13
2019-01-28T01:11:51.718Z,15.30
2019-01-28T01:16:53.603Z,7.70
2019-01-28T01:21:55.469Z,12.80
2019-01-28T01:26:57.168Z,9.47
2019-01-28T01:31:59.657Z,9.27
2019-01-28T01:37:01.331Z,7.00
2019-01-28T01:42:03.215Z,14.90
2019-01-28T01:47:04.995Z,14.93
2019-01-28T01:52:06.873Z,7.70
2019-01-28T01:57:08.754Z,13.57
2019-01-28T02:02:10.636Z,10.13
2019-01-28T02:07:12.510Z,10.97
2019-01-28T02:12:14.696Z,16.37
2019-01-28T02:17:16.885Z,10.03
2019-01-28T02:22:18.663Z,10.27
2019-01-28T02:27:20.751Z,7.13
2019-01-28T02:32:22.944Z,12.03
2019-01-28T02:37:24.726Z,21.17
2019-01-28T02:42:26.408Z,12.53
2019-01-28T02:47:28.189Z,17.53
2019-01-28T02:52:29.962Z,21.03
2019-01-28T02:57:32.048Z,5.23
2019-01-28T03:02:33.867Z,11.10
2019-01-28T03:07:35.707Z,9.53
2019-01-28T03:12:37.476Z,6.47
2019-01-28T03:17:39.287Z,12.83
2019-01-28T03:22:41.851Z,5.80
2019-01-28T03:27:44.554Z,15.80
2019-01-28T03:32:47.864Z,9.03
2019-01-28T03:37:49.946Z,6.53
2019-01-28T03:42:52.033Z,15.43
2019-01-28T03:47:54.324Z,6.73
2019-01-28T03:52:56.619Z,12.40
2019-01-28T03:57:58.902Z,3.80
2019-01-28T04:03:01.089Z,14.93
2019-01-28T04:08:03.510Z,14.53
2019-01-28T04:13:05.375Z,13.40
2019-01-28T04:18:07.172Z,6.90
2019-01-28T04:23:09.007Z,15.90
2019-01-28T04:28:11.069Z,19.23
2019-01-28T04:33:13.709Z,13.47
2019-01-28T04:38:15.508Z,19.40
2019-01-28T04:43:17.701Z,31.43
2019-01-28T04:48:19.479Z,20.60
2019-01-28T04:53:21.269Z,10.37
2019-01-28T04:58:23.457Z,20.37
2019-01-28T05:03:25.248Z,14.60
2019-01-28T05:08:27.560Z,10.13
2019-01-28T05:13:29.659Z,11.20
2019-01-28T05:18:31.552Z,5.90
2019-01-28T05:23:33.442Z,8.43
2019-01-28T05:28:35.215Z,16.93
2019-01-28T05:33:37.398Z,5.60
2019-01-28T05:38:39.178Z,9.43
2019-01-28T05:43:41.065Z,13.13
2019-01-28T05:48:42.869Z,11.17
2019-01-28T05:53:44.673Z,6.80
2019-01-28T05:58:46.459Z,10.80
2019-01-28T06:03:48.336Z,15.80
2019-01-28T06:08:59.363Z,19.80
2019-01-28T06:14:01.448Z,16.03
2019-01-28T06:19:03.233Z,11.23
2019-01-28T06:24:05.430Z,13.70
2019-01-28T06:29:07.201Z,17.67
2019-01-28T06:34:15.462Z,10.40
2019-01-28T06:39:17.586Z,12.17
2019-01-28T06:44:19.330Z,15.00
2019-01-28T06:49:21.214Z,12.33
2019-01-28T06:54:23.098Z,16.60
2019-01-28T06:59:24.888Z,15.20
2019-01-28T07:04:26.672Z,29.77
2019-01-28T07:09:28.441Z,17.80
2019-01-28T07:14:30.678Z,23.43
2019-01-28T07:19:32.473Z,11.90
2019-01-28T07:24:34.250Z,15.37
2019-01-28T07:35:09.103Z,12.20
2019-01-28T07:40:13.586Z,12.67
2019-01-28T07:45:27.158Z,23.10
2019-01-28T07:50:29.348Z,9.27
2019-01-28T07:55:36.256Z,14.57
2019-01-28T08:00:38.009Z,38.13
2019-01-28T08:05:39.651Z,27.50
2019-01-28T08:10:41.344Z,13.87
2019-01-28T08:15:43.114Z,31.13
2019-01-28T08:20:47.007Z,23.23
2019-01-28T08:25:49.212Z,14.97
2019-01-28T08:30:50.985Z,21.20
2019-01-28T08:35:52.864Z,19.27
2019-01-28T08:40:54.640Z,19.97
2019-01-28T08:45:56.421Z,19.33
2019-01-28T08:51:00.462Z,19.20
2019-01-28T08:56:06.668Z,20.00
2019-01-28T09:01:08.635Z,17.30
2019-01-28T09:06:10.309Z,20.60
2019-01-28T09:11:12.089Z,24.20
2019-01-28T09:16:13.870Z,31.23
2019-01-28T09:21:16.107Z,39.90
2019-01-28T09:26:17.945Z,23.30
2019-01-28T09:31:19.879Z,18.10
2019-01-28T09:36:22.019Z,24.13
2019-01-28T09:41:23.896Z,17.83
2019-01-28T09:46:25.645Z,20.30
2019-01-28T09:51:27.802Z,19.27
2019-01-28T09:56:29.644Z,26.90
2019-01-28T10:01:31.430Z,27.67
2019-01-28T10:06:33.213Z,30.90
2019-01-28T10:11:36.112Z,20.23
2019-01-28T10:16:38.631Z,21.93
2019-01-28T10:21:40.909Z,16.93
2019-01-28T10:26:42.806Z,27.50
2019-01-28T10:31:47.122Z,29.53
2019-01-28T10:36:49.017Z,27.57
2019-01-28T10:41:51.053Z,21.30
2019-01-28T10:46:52.888Z,26.20
2019-01-28T10:51:54.928Z,31.60
2019-01-28T10:56:56.806Z,21.80
2019-01-28T11:01:58.591Z,40.50
2019-01-28T11:07:00.471Z,19.93
2019-01-28T11:12:02.465Z,45.83
2019-01-28T11:17:04.554Z,19.60
2019-01-28T11:22:06.776Z,45.53
2019-01-28T11:27:08.917Z,56.90
2019-01-28T11:32:10.730Z,48.10
2019-01-28T11:37:12.774Z,47.53
2019-01-28T11:42:14.448Z,53.17
2019-01-28T11:47:16.274Z,46.63
2019-01-28T11:52:18.773Z,21.17
2019-01-28T11:57:20.946Z,21.53
2019-01-28T12:02:34.205Z,44.77
2019-01-28T12:07:33.310Z,33.23
2019-01-28T12:12:34.997Z,45.83
2019-01-28T12:17:36.849Z,46.97
2019-01-28T12:22:39.182Z,58.60
2019-01-28T12:27:41.694Z,54.00
2019-01-28T12:32:43.450Z,57.20
2019-01-28T12:37:47.805Z,58.80
2019-01-28T12:42:49.706Z,37.00
2019-01-28T12:47:51.902Z,25.57
2019-01-28T12:52:54.238Z,23.80
2019-01-28T12:57:56.306Z,13.57
2019-01-28T13:02:58.259Z,17.87
2019-01-28T13:08:00.006Z,13.23
2019-01-28T13:13:01.780Z,15.57
2019-01-28T13:18:04.215Z,16.13
2019-01-28T13:23:07.396Z,21.53
2019-01-28T13:28:09.444Z,22.33
2019-01-28T13:33:12.558Z,22.27
2019-01-28T13:38:14.422Z,26.30
2019-01-28T13:43:16.318Z,30.00
2019-01-28T13:48:18.489Z,31.10
2019-01-28T13:53:20.666Z,29.60
2019-01-28T13:58:22.455Z,37.20
2019-01-28T14:03:24.232Z,31.57
2019-01-28T14:08:26.126Z,48.37
2019-01-28T14:13:27.893Z,41.37
2019-01-28T14:18:29.727Z,45.83
2019-01-28T14:23:31.894Z,48.83
2019-01-28T14:28:33.725Z,51.40
2019-01-28T14:33:35.475Z,49.63
2019-01-28T14:38:37.326Z,45.73
2019-01-28T14:43:38.943Z,47.60
2019-01-28T14:48:48.768Z,43.30
2019-01-28T14:53:45.134Z,49.93
2019-01-28T14:59:01.934Z,46.00
2019-01-28T15:04:09.683Z,39.23
2019-01-28T15:09:09.347Z,42.00
2019-01-28T15:14:11.097Z,43.60
2019-01-28T15:19:12.865Z,44.43
2019-01-28T15:24:14.652Z,44.97
2019-01-28T15:29:16.872Z,55.53
2019-01-28T15:34:18.594Z,51.93
2019-01-28T15:39:23.212Z,47.73
2019-01-28T15:44:24.840Z,47.07
2019-01-28T15:49:26.851Z,27.30
2019-01-28T15:54:28.737Z,53.33
2019-01-28T15:59:31.092Z,42.53
2019-01-28T16:04:33.501Z,35.20
2019-01-28T16:09:35.274Z,32.70
2019-01-28T16:14:37.030Z,55.27
2019-01-28T16:19:38.925Z,49.07
2019-01-28T16:24:41.038Z,34.30
2019-01-28T16:29:43.285Z,55.87
2019-01-28T16:34:45.629Z,46.90
2019-01-28T16:39:48.029Z,40.83
2019-01-28T16:44:49.792Z,36.50
2019-01-28T16:49:51.539Z,39.63
2019-01-28T16:54:53.308Z,50.20
2019-01-28T16:59:55.376Z,41.30
2019-01-28T17:04:57.255Z,36.50
2019-01-28T17:09:59.399Z,40.83
2019-01-28T17:15:01.160Z,25.47
2019-01-28T17:20:06.532Z,25.60
2019-01-28T17:25:11.811Z,31.77
2019-01-28T17:30:32.779Z,23.10
2019-01-28T17:35:34.927Z,16.43
2019-01-28T17:40:38.914Z,18.33
2019-01-28T17:45:40.791Z,16.03
2019-01-28T17:50:43.638Z,19.00
2019-01-28T17:55:45.792Z,15.10
2019-01-28T18:00:49.308Z,18.70
2019-01-28T18:05:51.068Z,17.03
2019-01-28T18:10:52.893Z,12.17
2019-01-28T18:15:54.977Z,9.83
2019-01-28T18:20:56.744Z,14.03
2019-01-28T18:25:59.467Z,17.80
2019-01-28T18:31:01.542Z,15.87
2019-01-28T18:36:05.611Z,11.43
2019-01-28T18:41:07.604Z,19.03
2019-01-28T18:46:09.658Z,15.73
2019-01-28T18:51:11.701Z,11.60
2019-01-28T18:56:13.578Z,14.57
2019-01-28T19:01:15.919Z,8.90
2019-01-28T19:06:25.853Z,10.67
2019-01-28T19:11:39.091Z,9.43
2019-01-28T19:16:42.730Z,9.57
2019-01-28T19:21:46.387Z,10.50
2019-01-28T19:26:48.162Z,9.80
2019-01-28T19:31:49.977Z,7.17
2019-01-28T19:36:52.091Z,11.70
2019-01-28T19:41:54.162Z,9.83
2019-01-28T19:46:57.930Z,10.47
2019-01-28T19:51:59.832Z,9.57
2019-01-28T19:57:01.794Z,10.87
2019-01-28T20:02:04.317Z,15.83
2019-01-28T20:07:06.097Z,9.73
2019-01-28T20:12:08.143Z,8.57
2019-01-28T20:17:10.015Z,9.57
2019-01-28T20:22:11.868Z,10.33
2019-01-28T20:27:13.771Z,14.40
2019-01-28T20:32:15.471Z,7.97
2019-01-28T20:37:17.194Z,16.20
2019-01-28T20:42:20.198Z,16.47
2019-01-28T20:47:21.927Z,11.33
2019-01-28T20:52:23.660Z,13.13
2019-01-28T20:57:25.412Z,12.60
2019-01-28T21:02:27.299Z,12.30
2019-01-28T21:07:29.275Z,13.23
2019-01-28T21:12:31.581Z,15.37
2019-01-28T21:17:33.815Z,17.90
2019-01-28T21:22:35.917Z,9.97
2019-01-28T21:27:37.752Z,21.37
2019-01-28T21:32:39.643Z,12.87
2019-01-28T21:37:44.083Z,19.07
2019-01-28T21:42:46.692Z,13.10
2019-01-28T21:47:54.745Z,20.87
2019-01-28T21:52:57.031Z,14.57
2019-01-28T21:57:58.947Z,13.57
2019-01-28T22:03:00.757Z,24.70
2019-01-28T22:08:03.704Z,26.73
2019-01-28T22:13:05.479Z,15.00
2019-01-28T22:18:07.669Z,20.53
2019-01-28T22:23:12.159Z,16.83
2019-01-28T22:28:13.884Z,14.40
2019-01-28T22:33:15.553Z,12.47
2019-01-28T22:38:19.482Z,6.10
2019-01-28T22:43:21.876Z,14.30
2019-01-28T22:48:23.681Z,16.50
2019-01-28T22:53:26.368Z,13.80
2019-01-28T22:58:28.232Z,9.40
2019-01-28T23:03:30.033Z,7.80
2019-01-28T23:08:31.812Z,10.57
2019-01-28T23:13:33.608Z,9.10
2019-01-28T23:18:35.514Z,5.47
2019-01-28T23:23:37.712Z,8.10
2019-01-28T23:28:39.505Z,11.70
2019-01-28T23:33:41.295Z,16.03
2019-01-28T23:38:43.029Z,8.23
2019-01-28T23:43:45.435Z,12.90
2019-01-28T23:48:47.290Z,7.20
2019-01-28T23:53:49.087Z,8.30
2019-01-28T23:58:51.211Z,8.70
